createdAt,value
2018-12-14T00:00:12.679Z,43.35
2018-12-14T00:00:46.617Z,42.75
2018-12-14T00:01:21.290Z,42.27
2018-12-14T00:01:56.446Z,44.77
2018-12-14T00:02:31.856Z,44.88
2018-12-14T00:03:04.475Z,43.38
2018-12-14T00:03:37.075Z,45.92
2018-12-14T00:04:09.669Z,44.93
2018-12-14T00:04:42.246Z,40.65
2018-12-14T00:05:14.829Z,46.95
2018-12-14T00:05:47.441Z,43.80
2018-12-14T00:06:20.018Z,46.00
2018-12-14T00:06:52.593Z,46.23
2018-12-14T00:07:25.176Z,44.58
2018-12-14T00:07:57.732Z,52.85
2018-12-14T00:08:30.308Z,41.70
2018-12-14T00:09:04.152Z,50.00
2018-12-14T00:09:36.748Z,47.10
2018-12-14T00:10:09.593Z,41.37
2018-12-14T00:10:42.176Z,42.73
2018-12-14T00:11:14.758Z,45.70
2018-12-14T00:11:47.391Z,43.38
2018-12-14T00:12:19.982Z,49.55
2018-12-14T00:12:52.556Z,43.92
2018-12-14T00:13:25.154Z,45.43
2018-12-14T00:13:57.704Z,40.05
2018-12-14T00:14:30.322Z,47.13
2018-12-14T00:15:03.841Z,46.53
2018-12-14T00:15:36.455Z,50.20
2018-12-14T00:16:09.056Z,43.00
2018-12-14T00:16:41.772Z,46.70
2018-12-14T00:17:14.366Z,46.50
2018-12-14T00:17:46.952Z,45.03
2018-12-14T00:18:19.539Z,46.73
2018-12-14T00:18:52.127Z,49.65
2018-12-14T00:19:24.705Z,48.23
2018-12-14T00:19:57.317Z,47.45
2018-12-14T00:20:29.892Z,48.52
2018-12-14T00:21:02.623Z,46.00
2018-12-14T00:21:35.233Z,47.33
2018-12-14T00:22:07.847Z,49.03
2018-12-14T00:22:40.420Z,50.67
2018-12-14T00:23:12.983Z,44.15
2018-12-14T00:23:45.532Z,51.70
2018-12-14T00:24:18.105Z,47.13
2018-12-14T00:24:50.676Z,53.30
2018-12-14T00:25:23.289Z,48.13
2018-12-14T00:25:55.858Z,54.45
2018-12-14T00:26:28.455Z,45.28
2018-12-14T00:27:01.051Z,58.25
2018-12-14T00:27:33.637Z,51.40
2018-12-14T00:28:06.218Z,51.37
2018-12-14T00:28:38.780Z,50.88
2018-12-14T00:29:11.491Z,53.15
2018-12-14T00:29:44.202Z,43.63
2018-12-14T00:30:16.780Z,52.98
2018-12-14T00:30:49.368Z,48.68
2018-12-14T00:31:21.972Z,39.78
2018-12-14T00:31:54.549Z,44.60
2018-12-14T00:32:27.155Z,47.43
2018-12-14T00:32:59.739Z,50.05
2018-12-14T00:33:32.322Z,41.13
2018-12-14T00:34:04.900Z,45.17
2018-12-14T00:34:37.456Z,45.38
2018-12-14T00:35:10.067Z,47.08
2018-12-14T00:35:42.827Z,46.35
2018-12-14T00:36:15.853Z,45.28
2018-12-14T00:36:48.469Z,46.60
2018-12-14T00:37:25.497Z,49.90
2018-12-14T00:37:58.357Z,46.98
2018-12-14T00:38:31.097Z,50.10
2018-12-14T00:39:05.617Z,44.48
2018-12-14T00:39:38.205Z,44.85
2018-12-14T00:40:10.827Z,44.58
2018-12-14T00:40:43.438Z,49.70
2018-12-14T00:41:16.093Z,43.17
2018-12-14T00:41:51.891Z,43.75
2018-12-14T00:42:23.311Z,45.88
2018-12-14T00:42:55.903Z,44.42
2018-12-14T00:43:28.484Z,41.63
2018-12-14T00:44:01.059Z,42.13
2018-12-14T00:44:33.654Z,47.30
2018-12-14T00:45:06.239Z,49.83
2018-12-14T00:45:38.832Z,44.48
2018-12-14T00:46:11.518Z,46.37
2018-12-14T00:46:44.094Z,44.53
2018-12-14T00:47:16.698Z,40.12
2018-12-14T00:47:49.263Z,48.20
2018-12-14T00:48:21.825Z,46.05
2018-12-14T00:48:54.410Z,43.02
2018-12-14T00:49:27.000Z,42.25
2018-12-14T00:49:59.570Z,44.38
2018-12-14T00:50:32.277Z,37.70
2018-12-14T00:51:04.925Z,40.40
2018-12-14T00:51:37.519Z,37.15
2018-12-14T00:52:10.121Z,51.80
2018-12-14T00:52:42.707Z,42.48
2018-12-14T00:53:15.304Z,36.38
2018-12-14T00:53:47.889Z,37.50
2018-12-14T00:54:20.488Z,41.35
2018-12-14T00:54:53.067Z,43.10
2018-12-14T00:55:25.662Z,39.78
2018-12-14T00:55:58.232Z,38.67
2018-12-14T00:56:30.818Z,40.35
2018-12-14T00:57:03.407Z,41.95
2018-12-14T00:57:35.997Z,48.30
2018-12-14T00:58:08.603Z,39.53
2018-12-14T00:58:41.174Z,38.55
2018-12-14T00:59:13.744Z,37.73
2018-12-14T00:59:46.341Z,37.55
2018-12-14T01:00:18.930Z,39.33
2018-12-14T01:00:51.508Z,37.98
2018-12-14T01:01:24.076Z,39.78
2018-12-14T01:01:56.652Z,38.58
2018-12-14T01:02:29.395Z,35.25
2018-12-14T01:03:01.950Z,37.53
2018-12-14T01:03:34.698Z,42.75
2018-12-14T01:04:07.319Z,42.25
2018-12-14T01:04:39.892Z,38.53
2018-12-14T01:05:12.584Z,39.10
2018-12-14T01:05:45.420Z,34.05
2018-12-14T01:06:17.985Z,34.03
2018-12-14T01:06:50.548Z,36.38
2018-12-14T01:07:23.135Z,43.50
2018-12-14T01:07:55.729Z,36.90
2018-12-14T01:08:28.326Z,36.17
2018-12-14T01:09:00.922Z,38.30
2018-12-14T01:09:33.489Z,33.33
2018-12-14T01:10:06.206Z,34.58
2018-12-14T01:10:38.921Z,35.90
2018-12-14T01:11:11.496Z,42.27
2018-12-14T01:11:44.082Z,30.70
2018-12-14T01:12:16.697Z,40.28
2018-12-14T01:12:49.285Z,34.05
2018-12-14T01:13:21.857Z,37.58
2018-12-14T01:13:54.621Z,34.48
2018-12-14T01:14:27.222Z,35.28
2018-12-14T01:14:59.783Z,31.45
2018-12-14T01:15:32.556Z,40.98
2018-12-14T01:16:05.367Z,49.38
2018-12-14T01:16:37.986Z,33.85
2018-12-14T01:17:10.571Z,38.88
2018-12-14T01:17:43.160Z,33.45
2018-12-14T01:18:15.771Z,35.05
2018-12-14T01:18:48.366Z,32.42
2018-12-14T01:19:20.952Z,35.55
2018-12-14T01:19:53.579Z,33.38
2018-12-14T01:20:26.183Z,37.88
2018-12-14T01:20:58.790Z,38.98
2018-12-14T01:21:31.384Z,37.35
2018-12-14T01:22:03.969Z,37.40
2018-12-14T01:22:36.660Z,34.35
2018-12-14T01:23:09.233Z,37.38
2018-12-14T01:23:41.821Z,32.28
2018-12-14T01:24:14.662Z,36.58
2018-12-14T01:24:47.245Z,37.98
2018-12-14T01:25:19.875Z,34.30
2018-12-14T01:25:52.497Z,33.00
2018-12-14T01:26:25.092Z,32.08
2018-12-14T01:26:57.699Z,36.15
2018-12-14T01:27:32.984Z,37.78
2018-12-14T01:28:05.570Z,33.33
2018-12-14T01:28:38.164Z,31.87
2018-12-14T01:29:10.752Z,35.25
2018-12-14T01:29:43.342Z,33.08
2018-12-14T01:30:15.938Z,35.33
2018-12-14T01:30:48.660Z,33.45
2018-12-14T01:31:21.250Z,31.05
2018-12-14T01:31:53.826Z,36.80
2018-12-14T01:32:26.401Z,36.30
2018-12-14T01:32:58.988Z,41.83
2018-12-14T01:33:31.590Z,34.73
2018-12-14T01:34:04.180Z,35.05
2018-12-14T01:34:36.750Z,36.77
2018-12-14T01:35:09.320Z,37.17
2018-12-14T01:35:41.901Z,34.35
2018-12-14T01:36:14.507Z,34.15
2018-12-14T01:36:47.107Z,34.45
2018-12-14T01:37:19.697Z,37.40
2018-12-14T01:37:52.282Z,34.30
2018-12-14T01:38:25.421Z,37.42
2018-12-14T01:38:58.004Z,36.23
2018-12-14T01:39:30.618Z,35.52
2018-12-14T01:40:04.095Z,31.33
2018-12-14T01:40:36.988Z,33.25
2018-12-14T01:41:09.549Z,36.15
2018-12-14T01:41:42.289Z,34.48
2018-12-14T01:42:15.505Z,33.33
2018-12-14T01:42:48.069Z,36.20
2018-12-14T01:43:22.335Z,36.00
2018-12-14T01:43:55.273Z,35.73
2018-12-14T01:44:28.723Z,37.48
2018-12-14T01:45:01.368Z,35.80
2018-12-14T01:45:33.961Z,40.80
2018-12-14T01:46:06.671Z,39.78
2018-12-14T01:46:39.293Z,33.25
2018-12-14T01:47:11.918Z,44.77
2018-12-14T01:47:44.653Z,35.80
2018-12-14T01:48:17.265Z,47.23
2018-12-14T01:48:49.866Z,38.30
2018-12-14T01:49:22.538Z,43.87
2018-12-14T01:49:55.191Z,37.73
2018-12-14T01:50:27.781Z,36.77
2018-12-14T01:51:00.430Z,33.08
2018-12-14T01:51:33.121Z,33.55
2018-12-14T01:52:05.777Z,36.63
2018-12-14T01:52:38.506Z,34.23
2018-12-14T01:53:11.084Z,34.67
2018-12-14T01:53:43.749Z,31.35
2018-12-14T01:54:16.410Z,37.85
2018-12-14T01:54:49.198Z,34.78
2018-12-14T01:55:22.077Z,34.23
2018-12-14T01:55:54.746Z,35.98
2018-12-14T01:56:27.348Z,37.67
2018-12-14T01:56:59.937Z,38.00
2018-12-14T01:57:32.851Z,38.65
2018-12-14T01:58:05.545Z,34.85
2018-12-14T01:58:38.259Z,32.33
2018-12-14T01:59:10.846Z,35.25
2018-12-14T01:59:43.430Z,34.95
2018-12-14T02:00:16.335Z,40.88
2018-12-14T02:00:48.922Z,34.08
2018-12-14T02:01:21.510Z,37.48
2018-12-14T02:01:54.113Z,35.00
2018-12-14T02:02:26.689Z,30.82
2018-12-14T02:02:59.272Z,37.42
2018-12-14T02:03:31.883Z,34.43
2018-12-14T02:04:04.475Z,33.45
2018-12-14T02:04:37.049Z,38.20
2018-12-14T02:05:09.617Z,41.50
2018-12-14T02:05:42.193Z,36.30
2018-12-14T02:06:14.789Z,33.78
2018-12-14T02:06:47.359Z,34.15
2018-12-14T02:07:19.952Z,38.23
2018-12-14T02:07:52.654Z,35.30
2018-12-14T02:08:25.242Z,31.15
2018-12-14T02:08:57.852Z,36.73
2018-12-14T02:09:30.459Z,37.67
2018-12-14T02:10:03.293Z,35.35
2018-12-14T02:10:35.885Z,34.55
2018-12-14T02:11:08.477Z,39.25
2018-12-14T02:11:41.070Z,36.98
2018-12-14T02:12:13.661Z,35.92
2018-12-14T02:12:46.249Z,31.20
2018-12-14T02:13:18.869Z,35.13
2018-12-14T02:13:51.434Z,45.85
2018-12-14T02:14:24.194Z,36.45
2018-12-14T02:14:56.787Z,37.10
2018-12-14T02:15:29.499Z,39.85
2018-12-14T02:16:02.135Z,34.10
2018-12-14T02:16:34.775Z,40.30
2018-12-14T02:17:07.431Z,33.63
2018-12-14T02:17:40.049Z,40.12
2018-12-14T02:18:12.752Z,35.52
2018-12-14T02:18:45.336Z,35.78
2018-12-14T02:19:17.917Z,33.40
2018-12-14T02:19:50.526Z,39.10
2018-12-14T02:20:23.141Z,37.73
2018-12-14T02:20:55.869Z,32.40
2018-12-14T02:21:28.487Z,34.80
2018-12-14T02:22:01.079Z,35.60
2018-12-14T02:22:33.663Z,34.00
2018-12-14T02:23:06.273Z,34.98
2018-12-14T02:23:38.852Z,39.03
2018-12-14T02:24:11.485Z,40.78
2018-12-14T02:24:44.085Z,35.38
2018-12-14T02:25:16.693Z,35.23
2018-12-14T02:25:49.287Z,37.13
2018-12-14T02:26:21.888Z,36.17
2018-12-14T02:26:54.498Z,36.15
2018-12-14T02:27:27.095Z,37.73
2018-12-14T02:27:59.675Z,38.28
2018-12-14T02:28:32.275Z,36.42
2018-12-14T02:29:04.878Z,32.42
2018-12-14T02:29:37.479Z,34.60
2018-12-14T02:30:21.348Z,34.75
2018-12-14T02:30:53.928Z,35.70
2018-12-14T02:31:26.526Z,37.23
2018-12-14T02:31:59.130Z,34.58
2018-12-14T02:32:31.719Z,37.38
2018-12-14T02:33:04.325Z,37.73
2018-12-14T02:33:36.998Z,36.20
2018-12-14T02:34:09.696Z,34.95
2018-12-14T02:34:42.424Z,31.48
2018-12-14T02:35:15.018Z,40.63
2018-12-14T02:35:47.684Z,38.10
2018-12-14T02:36:20.280Z,34.85
2018-12-14T02:36:52.965Z,35.13
2018-12-14T02:37:25.545Z,35.43
2018-12-14T02:37:58.266Z,39.15
2018-12-14T02:38:30.884Z,37.78
2018-12-14T02:39:05.061Z,32.05
2018-12-14T02:39:37.632Z,42.95
2018-12-14T02:40:10.351Z,40.23
2018-12-14T02:40:42.948Z,35.78
2018-12-14T02:41:15.586Z,39.83
2018-12-14T02:41:48.176Z,34.78
2018-12-14T02:42:20.749Z,35.75
2018-12-14T02:42:53.326Z,35.08
2018-12-14T02:43:25.940Z,38.90
2018-12-14T02:43:58.514Z,38.83
2018-12-14T02:44:31.101Z,37.15
2018-12-14T02:45:04.075Z,31.15
2018-12-14T02:45:36.785Z,39.40
2018-12-14T02:46:09.371Z,31.52
2018-12-14T02:46:42.005Z,34.55
2018-12-14T02:47:14.581Z,39.73
2018-12-14T02:47:47.195Z,35.55
2018-12-14T02:48:19.822Z,32.03
2018-12-14T02:48:52.421Z,33.25
2018-12-14T02:49:24.996Z,37.48
2018-12-14T02:49:57.563Z,38.13
2018-12-14T02:50:30.161Z,34.18
2018-12-14T02:51:02.760Z,33.88
2018-12-14T02:51:35.497Z,36.45
2018-12-14T02:52:08.122Z,34.33
2018-12-14T02:52:40.717Z,29.87
2018-12-14T02:53:13.295Z,32.28
2018-12-14T02:53:45.849Z,35.83
2018-12-14T02:54:18.431Z,36.35
2018-12-14T02:54:51.025Z,34.35
2018-12-14T02:55:23.617Z,33.25
2018-12-14T02:55:56.208Z,39.10
2018-12-14T02:56:28.806Z,35.05
2018-12-14T02:57:01.395Z,38.08
2018-12-14T02:57:34.012Z,39.63
2018-12-14T02:58:06.584Z,40.05
2018-12-14T02:58:39.167Z,31.70
2018-12-14T02:59:11.754Z,35.25
2018-12-14T02:59:44.348Z,36.38
2018-12-14T03:00:16.950Z,37.35
2018-12-14T03:00:49.538Z,35.83
2018-12-14T03:01:22.246Z,31.25
2018-12-14T03:01:54.831Z,33.78
2018-12-14T03:02:27.438Z,38.90
2018-12-14T03:03:00.064Z,37.30
2018-12-14T03:03:32.657Z,33.20
2018-12-14T03:04:05.250Z,34.25
2018-12-14T03:04:37.834Z,35.15
2018-12-14T03:05:10.431Z,40.88
2018-12-14T03:05:43.035Z,35.08
2018-12-14T03:06:15.745Z,36.42
2018-12-14T03:06:48.340Z,32.60
2018-12-14T03:07:20.946Z,39.95
2018-12-14T03:07:53.540Z,39.78
2018-12-14T03:08:26.149Z,36.53
2018-12-14T03:08:58.729Z,36.50
2018-12-14T03:09:31.310Z,38.88
2018-12-14T03:10:04.870Z,36.88
2018-12-14T03:10:37.436Z,33.92
2018-12-14T03:11:10.013Z,37.95
2018-12-14T03:11:42.611Z,40.85
2018-12-14T03:12:15.211Z,33.58
2018-12-14T03:12:47.805Z,36.98
2018-12-14T03:13:20.409Z,39.50
2018-12-14T03:13:53.002Z,43.17
2018-12-14T03:14:25.736Z,40.63
2018-12-14T03:14:58.322Z,36.70
2018-12-14T03:15:30.929Z,33.80
2018-12-14T03:16:03.513Z,37.67
2018-12-14T03:16:36.111Z,31.95
2018-12-14T03:17:08.857Z,36.10
2018-12-14T03:17:41.488Z,46.15
2018-12-14T03:18:14.076Z,35.15
2018-12-14T03:18:46.651Z,39.80
2018-12-14T03:19:19.272Z,35.35
2018-12-14T03:19:51.988Z,36.55
2018-12-14T03:20:24.570Z,40.83
2018-12-14T03:20:57.164Z,40.43
2018-12-14T03:21:29.733Z,35.98
2018-12-14T03:22:02.313Z,44.73
2018-12-14T03:22:35.039Z,41.83
2018-12-14T03:23:07.628Z,40.00
2018-12-14T03:23:40.222Z,45.75
2018-12-14T03:24:12.819Z,40.23
2018-12-14T03:24:45.451Z,44.93
2018-12-14T03:25:18.071Z,39.92
2018-12-14T03:25:50.808Z,38.40
2018-12-14T03:26:23.383Z,40.12
2018-12-14T03:26:55.963Z,39.27
2018-12-14T03:27:28.585Z,38.13
2018-12-14T03:28:01.146Z,37.83
2018-12-14T03:28:33.730Z,49.85
2018-12-14T03:29:06.315Z,42.27
2018-12-14T03:29:38.918Z,44.73
2018-12-14T03:30:11.567Z,45.90
2018-12-14T03:30:44.182Z,36.65
2018-12-14T03:31:16.766Z,47.67
2018-12-14T03:31:49.341Z,42.03
2018-12-14T03:32:21.962Z,43.85
2018-12-14T03:32:54.573Z,43.35
2018-12-14T03:33:27.276Z,42.23
2018-12-14T03:33:59.841Z,39.58
2018-12-14T03:34:32.425Z,42.55
2018-12-14T03:35:05.279Z,46.42
2018-12-14T03:35:37.893Z,44.33
2018-12-14T03:36:10.474Z,46.53
2018-12-14T03:36:43.067Z,47.45
2018-12-14T03:37:15.661Z,43.83
2018-12-14T03:37:48.261Z,47.38
2018-12-14T03:38:20.859Z,46.05
2018-12-14T03:38:53.442Z,44.60
2018-12-14T03:39:26.040Z,46.13
2018-12-14T03:39:58.623Z,46.40
2018-12-14T03:40:31.441Z,43.78
2018-12-14T03:41:04.317Z,48.45
2018-12-14T03:41:37.056Z,49.90
2018-12-14T03:42:09.650Z,44.93
2018-12-14T03:42:42.206Z,53.13
2018-12-14T03:43:14.803Z,49.23
2018-12-14T03:43:47.375Z,46.08
2018-12-14T03:44:19.946Z,47.75
2018-12-14T03:44:52.533Z,46.05
2018-12-14T03:45:25.151Z,49.45
2018-12-14T03:45:57.766Z,45.23
2018-12-14T03:46:30.403Z,45.23
2018-12-14T03:47:03.100Z,42.73
2018-12-14T03:47:35.698Z,39.65
2018-12-14T03:48:08.312Z,44.20
2018-12-14T03:48:40.925Z,48.73
2018-12-14T03:49:13.504Z,44.73
2018-12-14T03:49:46.124Z,49.77
2018-12-14T03:50:18.727Z,50.75
2018-12-14T03:50:51.307Z,47.27
2018-12-14T03:51:27.837Z,43.52
2018-12-14T03:52:00.486Z,45.23
2018-12-14T03:52:33.068Z,47.53
2018-12-14T03:53:05.669Z,46.60
2018-12-14T03:53:38.275Z,44.18
2018-12-14T03:54:10.854Z,46.35
2018-12-14T03:54:43.458Z,48.33
2018-12-14T03:55:16.122Z,56.10
2018-12-14T03:55:48.705Z,49.77
2018-12-14T03:56:21.330Z,39.05
2018-12-14T03:56:53.915Z,46.68
2018-12-14T03:57:26.550Z,40.65
2018-12-14T03:58:03.910Z,43.68
2018-12-14T03:58:36.485Z,46.85
2018-12-14T03:59:09.098Z,39.70
2018-12-14T03:59:41.750Z,49.63
2018-12-14T04:00:17.983Z,49.53
2018-12-14T04:00:50.742Z,45.05
2018-12-14T04:01:23.344Z,44.90
2018-12-14T04:01:55.966Z,44.38
2018-12-14T04:02:28.575Z,47.93
2018-12-14T04:03:01.315Z,51.68
2018-12-14T04:03:33.924Z,46.92
2018-12-14T04:04:06.515Z,48.08
2018-12-14T04:04:39.089Z,51.23
2018-12-14T04:05:11.681Z,44.35
2018-12-14T04:05:44.290Z,43.20
2018-12-14T04:06:16.881Z,47.50
2018-12-14T04:06:49.481Z,45.58
2018-12-14T04:07:22.214Z,47.50
2018-12-14T04:07:54.932Z,42.40
2018-12-14T04:08:27.519Z,40.83
2018-12-14T04:09:00.113Z,47.05
2018-12-14T04:09:32.750Z,37.33
2018-12-14T04:10:06.170Z,44.63
2018-12-14T04:10:38.777Z,44.85
2018-12-14T04:11:11.476Z,44.90
2018-12-14T04:11:44.194Z,44.48
2018-12-14T04:12:16.758Z,45.33
2018-12-14T04:12:49.378Z,44.38
2018-12-14T04:13:22.094Z,43.55
2018-12-14T04:13:54.686Z,41.58
2018-12-14T04:14:27.267Z,47.30
2018-12-14T04:14:59.862Z,44.53
2018-12-14T04:15:32.574Z,42.98
2018-12-14T04:16:05.178Z,50.08
2018-12-14T04:16:37.781Z,42.53
2018-12-14T04:17:10.364Z,44.42
2018-12-14T04:17:42.964Z,50.05
2018-12-14T04:18:15.561Z,45.23
2018-12-14T04:18:48.182Z,46.68
2018-12-14T04:19:20.771Z,44.10
2018-12-14T04:19:53.373Z,44.80
2018-12-14T04:20:26.099Z,49.90
2018-12-14T04:20:58.725Z,41.63
2018-12-14T04:21:31.351Z,38.15
2018-12-14T04:22:03.971Z,39.75
2018-12-14T04:22:36.585Z,41.90
2018-12-14T04:23:09.235Z,45.08
2018-12-14T04:23:41.863Z,46.23
2018-12-14T04:24:14.504Z,38.67
2018-12-14T04:24:47.107Z,43.33
2018-12-14T04:25:19.701Z,45.73
2018-12-14T04:25:52.288Z,50.30
2018-12-14T04:26:24.857Z,44.58
2018-12-14T04:26:57.445Z,42.45
2018-12-14T04:27:30.047Z,38.28
2018-12-14T04:28:02.630Z,43.70
2018-12-14T04:28:35.864Z,45.43
2018-12-14T04:29:08.456Z,46.68
2018-12-14T04:29:41.069Z,45.88
2018-12-14T04:30:13.779Z,41.55
2018-12-14T04:30:46.336Z,43.40
2018-12-14T04:31:18.937Z,43.25
2018-12-14T04:31:51.540Z,52.13
2018-12-14T04:32:24.128Z,46.02
2018-12-14T04:32:56.899Z,42.73
2018-12-14T04:33:29.770Z,43.42
2018-12-14T04:34:02.337Z,48.78
2018-12-14T04:34:34.942Z,46.20
2018-12-14T04:35:07.675Z,43.55
2018-12-14T04:35:40.266Z,44.38
2018-12-14T04:36:12.940Z,49.23
2018-12-14T04:36:45.605Z,45.88
2018-12-14T04:37:18.185Z,40.38
2018-12-14T04:37:50.752Z,48.45
2018-12-14T04:38:23.335Z,50.00
2018-12-14T04:38:55.921Z,49.30
2018-12-14T04:39:28.859Z,44.35
2018-12-14T04:40:01.459Z,44.30
2018-12-14T04:40:34.072Z,47.33
2018-12-14T04:41:06.688Z,40.85
2018-12-14T04:41:39.305Z,46.13
2018-12-14T04:42:11.899Z,43.78
2018-12-14T04:42:48.827Z,46.42
2018-12-14T04:43:19.223Z,41.90
2018-12-14T04:43:51.857Z,44.70
2018-12-14T04:44:24.641Z,45.52
2018-12-14T04:44:57.255Z,49.38
2018-12-14T04:45:29.829Z,42.78
2018-12-14T04:46:02.423Z,47.23
2018-12-14T04:46:35.002Z,44.60
2018-12-14T04:47:07.775Z,48.10
2018-12-14T04:47:40.495Z,41.55
2018-12-14T04:48:13.109Z,48.13
2018-12-14T04:48:45.694Z,48.68
2018-12-14T04:49:18.625Z,53.28
2018-12-14T04:49:51.323Z,40.10
2018-12-14T04:50:23.912Z,42.38
2018-12-14T04:50:56.499Z,46.00
2018-12-14T04:51:29.137Z,46.33
2018-12-14T04:52:03.836Z,48.70
2018-12-14T04:52:36.434Z,43.95
2018-12-14T04:53:09.005Z,49.40
2018-12-14T04:53:41.586Z,49.80
2018-12-14T04:54:14.149Z,44.95
2018-12-14T04:54:46.754Z,49.60
2018-12-14T04:55:19.366Z,48.02
2018-12-14T04:55:51.968Z,45.15
2018-12-14T04:56:24.570Z,46.90
2018-12-14T04:56:57.188Z,49.60
2018-12-14T04:57:29.788Z,48.75
2018-12-14T04:58:02.388Z,45.45
2018-12-14T04:58:34.973Z,47.80
2018-12-14T04:59:09.147Z,44.35
2018-12-14T04:59:41.832Z,46.95
2018-12-14T05:00:14.558Z,42.50
2018-12-14T05:00:47.176Z,45.15
2018-12-14T05:01:19.787Z,46.88
2018-12-14T05:01:52.403Z,44.27
2018-12-14T05:02:25.038Z,51.53
2018-12-14T05:02:57.625Z,48.23
2018-12-14T05:03:30.235Z,43.95
2018-12-14T05:04:02.890Z,42.67
2018-12-14T05:04:35.557Z,45.43
2018-12-14T05:05:08.145Z,44.10
2018-12-14T05:05:40.743Z,44.75
2018-12-14T05:06:13.330Z,43.17
2018-12-14T05:06:45.909Z,44.18
2018-12-14T05:07:18.493Z,45.63
2018-12-14T05:07:51.111Z,50.17
2018-12-14T05:08:23.702Z,39.63
2018-12-14T05:08:56.275Z,43.40
2018-12-14T05:09:28.860Z,40.23
2018-12-14T05:10:01.429Z,44.15
2018-12-14T05:10:34.008Z,41.85
2018-12-14T05:11:06.615Z,44.33
2018-12-14T05:11:39.427Z,43.00
2018-12-14T05:12:12.255Z,44.23
2018-12-14T05:12:44.852Z,42.45
2018-12-14T05:13:17.482Z,45.33
2018-12-14T05:13:50.079Z,42.38
2018-12-14T05:14:22.785Z,49.20
2018-12-14T05:14:55.431Z,52.55
2018-12-14T05:15:28.013Z,44.20
2018-12-14T05:16:00.586Z,39.35
2018-12-14T05:16:33.163Z,50.50
2018-12-14T05:17:05.755Z,45.10
2018-12-14T05:17:38.363Z,45.45
2018-12-14T05:18:10.968Z,45.15
2018-12-14T05:18:43.596Z,46.83
2018-12-14T05:19:16.181Z,40.88
2018-12-14T05:19:48.755Z,42.80
2018-12-14T05:20:21.328Z,45.65
2018-12-14T05:20:53.926Z,39.27
2018-12-14T05:21:26.519Z,44.83
2018-12-14T05:21:59.277Z,42.73
2018-12-14T05:22:31.865Z,40.30
2018-12-14T05:23:04.451Z,41.58
2018-12-14T05:23:37.042Z,43.73
2018-12-14T05:24:09.649Z,43.58
2018-12-14T05:24:42.226Z,43.05
2018-12-14T05:25:14.956Z,42.88
2018-12-14T05:25:47.656Z,48.13
2018-12-14T05:26:20.270Z,45.35
2018-12-14T05:26:53.727Z,50.40
2018-12-14T05:27:26.326Z,44.65
2018-12-14T05:27:58.924Z,45.60
2018-12-14T05:28:31.521Z,47.38
2018-12-14T05:29:04.101Z,44.90
2018-12-14T05:29:36.713Z,44.58
2018-12-14T05:30:09.578Z,44.70
2018-12-14T05:30:42.188Z,46.33
2018-12-14T05:31:14.769Z,50.05
2018-12-14T05:31:47.360Z,46.65
2018-12-14T05:32:19.961Z,46.10
2018-12-14T05:32:52.546Z,41.42
2018-12-14T05:33:25.132Z,45.60
2018-12-14T05:33:57.728Z,42.58
2018-12-14T05:34:30.339Z,42.60
2018-12-14T05:35:03.219Z,55.08
2018-12-14T05:35:35.808Z,46.80
2018-12-14T05:36:08.397Z,44.13
2018-12-14T05:36:41.008Z,47.65
2018-12-14T05:37:13.592Z,52.62
2018-12-14T05:37:46.205Z,41.63
2018-12-14T05:38:18.797Z,48.95
2018-12-14T05:38:51.390Z,48.42
2018-12-14T05:39:24.333Z,40.23
2018-12-14T05:39:56.906Z,42.08
2018-12-14T05:40:29.520Z,42.93
2018-12-14T05:41:02.098Z,47.27
2018-12-14T05:41:34.672Z,47.03
2018-12-14T05:42:07.280Z,47.88
2018-12-14T05:42:39.870Z,42.05
2018-12-14T05:43:12.472Z,39.13
2018-12-14T05:43:45.067Z,39.15
2018-12-14T05:44:17.660Z,41.25
2018-12-14T05:44:50.247Z,44.15
2018-12-14T05:45:22.828Z,35.60
2018-12-14T05:45:55.458Z,46.58
2018-12-14T05:46:28.047Z,46.30
2018-12-14T05:47:00.645Z,49.55
2018-12-14T05:47:33.217Z,47.70
2018-12-14T05:48:05.797Z,48.08
2018-12-14T05:48:38.406Z,51.98
2018-12-14T05:49:11.083Z,59.65
2018-12-14T05:49:43.678Z,48.50
2018-12-14T05:50:16.260Z,54.70
2018-12-14T05:50:48.833Z,49.40
2018-12-14T05:51:21.450Z,51.83
2018-12-14T05:51:54.064Z,43.70
2018-12-14T05:52:26.697Z,42.67
2018-12-14T05:52:59.284Z,40.95
2018-12-14T05:53:31.878Z,36.73
2018-12-14T05:54:04.588Z,43.17
2018-12-14T05:54:37.178Z,42.00
2018-12-14T05:55:09.781Z,42.48
2018-12-14T05:55:42.371Z,40.73
2018-12-14T05:56:14.953Z,34.40
2018-12-14T05:56:47.714Z,38.53
2018-12-14T05:57:20.428Z,38.28
2018-12-14T05:57:53.042Z,34.58
2018-12-14T05:58:26.008Z,40.58
2018-12-14T05:58:58.756Z,53.75
2018-12-14T05:59:31.342Z,48.13
2018-12-14T06:00:05.437Z,38.48
2018-12-14T06:00:38.021Z,36.85
2018-12-14T06:01:10.604Z,38.73
2018-12-14T06:01:43.182Z,36.53
2018-12-14T06:02:15.926Z,39.10
2018-12-14T06:02:48.500Z,34.70
2018-12-14T06:03:21.081Z,35.08
2018-12-14T06:03:53.844Z,33.58
2018-12-14T06:04:26.439Z,37.75
2018-12-14T06:04:59.022Z,35.17
2018-12-14T06:05:31.604Z,32.25
2018-12-14T06:06:04.205Z,38.88
2018-12-14T06:06:36.827Z,30.37
2018-12-14T06:07:09.467Z,36.13
2018-12-14T06:07:42.087Z,39.45
2018-12-14T06:08:14.660Z,31.52
2018-12-14T06:08:47.253Z,35.60
2018-12-14T06:09:19.832Z,37.33
2018-12-14T06:09:52.397Z,38.13
2018-12-14T06:10:24.974Z,35.40
2018-12-14T06:10:57.599Z,35.98
2018-12-14T06:11:30.197Z,28.55
2018-12-14T06:12:02.938Z,35.30
2018-12-14T06:12:35.665Z,34.63
2018-12-14T06:13:09.190Z,35.95
2018-12-14T06:13:42.198Z,34.15
2018-12-14T06:14:14.760Z,34.33
2018-12-14T06:14:47.500Z,34.35
2018-12-14T06:15:20.138Z,35.98
2018-12-14T06:15:52.749Z,31.68
2018-12-14T06:16:25.332Z,33.53
2018-12-14T06:16:58.040Z,32.53
2018-12-14T06:17:30.620Z,39.88
2018-12-14T06:18:03.341Z,32.53
2018-12-14T06:18:35.971Z,36.60
2018-12-14T06:19:08.550Z,27.10
2018-12-14T06:19:41.176Z,33.33
2018-12-14T06:20:13.894Z,33.55
2018-12-14T06:20:46.460Z,34.13
2018-12-14T06:21:19.078Z,30.50
2018-12-14T06:21:51.641Z,33.78
2018-12-14T06:22:24.237Z,34.50
2018-12-14T06:22:56.818Z,29.48
2018-12-14T06:23:29.525Z,34.45
2018-12-14T06:24:02.159Z,29.80
2018-12-14T06:24:34.775Z,33.55
2018-12-14T06:25:07.590Z,35.95
2018-12-14T06:25:40.161Z,31.50
2018-12-14T06:26:12.798Z,36.75
2018-12-14T06:26:45.385Z,34.50
2018-12-14T06:27:18.013Z,40.45
2018-12-14T06:27:50.614Z,36.85
2018-12-14T06:28:23.201Z,40.85
2018-12-14T06:28:55.785Z,40.70
2018-12-14T06:29:28.383Z,39.85
2018-12-14T06:30:00.990Z,37.33
2018-12-14T06:30:33.639Z,41.77
2018-12-14T06:31:06.242Z,34.63
2018-12-14T06:31:38.827Z,34.03
2018-12-14T06:32:11.420Z,34.27
2018-12-14T06:32:44.005Z,31.02
2018-12-14T06:33:16.623Z,36.05
2018-12-14T06:33:49.230Z,31.40
2018-12-14T06:34:21.825Z,32.48
2018-12-14T06:34:54.457Z,32.50
2018-12-14T06:35:27.034Z,28.38
2018-12-14T06:35:59.609Z,29.87
2018-12-14T06:36:32.208Z,29.02
2018-12-14T06:37:04.808Z,28.25
2018-12-14T06:37:40.305Z,32.50
2018-12-14T06:38:12.962Z,41.65
2018-12-14T06:38:45.563Z,29.50
2018-12-14T06:39:18.282Z,28.25
2018-12-14T06:39:50.872Z,32.20
2018-12-14T06:40:23.486Z,31.23
2018-12-14T06:40:56.087Z,28.80
2018-12-14T06:41:28.669Z,37.60
2018-12-14T06:42:01.405Z,32.50
2018-12-14T06:42:33.972Z,33.73
2018-12-14T06:43:06.701Z,34.30
2018-12-14T06:43:39.280Z,27.40
2018-12-14T06:44:11.885Z,31.73
2018-12-14T06:44:44.470Z,26.93
2018-12-14T06:45:17.075Z,29.85
2018-12-14T06:45:49.710Z,26.87
2018-12-14T06:46:22.299Z,32.00
2018-12-14T06:46:54.906Z,32.65
2018-12-14T06:47:28.982Z,31.62
2018-12-14T06:48:01.585Z,28.75
2018-12-14T06:48:34.152Z,26.62
2018-12-14T06:49:06.729Z,29.82
2018-12-14T06:49:39.335Z,36.53
2018-12-14T06:50:11.922Z,32.80
2018-12-14T06:50:44.637Z,30.82
2018-12-14T06:51:17.240Z,26.15
2018-12-14T06:51:49.859Z,26.05
2018-12-14T06:52:22.456Z,31.50
2018-12-14T06:52:55.230Z,31.90
2018-12-14T06:53:27.782Z,29.00
2018-12-14T06:54:00.378Z,33.55
2018-12-14T06:54:32.954Z,28.15
2018-12-14T06:55:05.826Z,25.37
2018-12-14T06:55:38.389Z,25.37
2018-12-14T06:56:10.977Z,27.48
2018-12-14T06:56:43.593Z,30.20
2018-12-14T06:57:16.178Z,34.70
2018-12-14T06:57:48.767Z,24.00
2018-12-14T06:58:21.379Z,30.12
2018-12-14T06:58:53.989Z,28.07
2018-12-14T06:59:26.565Z,24.75
2018-12-14T06:59:59.153Z,27.15
2018-12-14T07:00:31.738Z,31.50
2018-12-14T07:01:04.334Z,29.27